createdAt,value
2022-09-07T00:00:17.632Z,803
2022-09-07T00:02:18.389Z,920
2022-09-07T00:04:18.459Z,849
2022-09-07T00:06:17.439Z,905
2022-09-07T00:08:18.243Z,846
2022-09-07T00:10:18.311Z,788
2022-09-07T00:12:18.057Z,767
2022-09-07T00:14:18.131Z,895
2022-09-07T00:16:18.098Z,837
2022-09-07T00:18:18.297Z,888
2022-09-07T00:20:17.514Z,833
2022-09-07T00:22:18.337Z,956
2022-09-07T00:24:18.176Z,866
2022-09-07T00:26:17.400Z,914
2022-09-07T00:28:17.927Z,882
2022-09-07T00:30:17.804Z,896
2022-09-07T00:32:17.638Z,884
2022-09-07T00:34:17.899Z,900
2022-09-07T00:36:17.689Z,799
2022-09-07T00:38:17.424Z,846
2022-09-07T00:40:18.282Z,888
2022-09-07T00:42:18.278Z,896
2022-09-07T00:44:17.468Z,846
2022-09-07T00:46:18.379Z,839
2022-09-07T00:48:18.023Z,851
2022-09-07T00:50:17.902Z,799
2022-09-07T00:52:18.262Z,811
2022-09-07T00:54:18.088Z,806
2022-09-07T00:56:17.949Z,883
2022-09-07T00:58:17.951Z,890
2022-09-07T01:00:17.702Z,887
2022-09-07T01:02:17.804Z,798
2022-09-07T01:04:18.159Z,784
2022-09-07T01:06:17.925Z,930
2022-09-07T01:08:18.273Z,868
2022-09-07T01:10:18.153Z,767
2022-09-07T01:12:17.976Z,805
2022-09-07T01:14:17.832Z,862
2022-09-07T01:16:17.709Z,797
2022-09-07T01:18:17.705Z,877
2022-09-07T01:20:18.313Z,883
2022-09-07T01:22:18.205Z,867
2022-09-07T01:24:18.219Z,880
2022-09-07T01:26:18.080Z,877
2022-09-07T01:28:17.957Z,874
2022-09-07T01:30:17.691Z,851
2022-09-07T01:32:17.446Z,840
2022-09-07T01:34:18.328Z,796
2022-09-07T01:36:18.153Z,875
2022-09-07T01:38:18.130Z,815
2022-09-07T01:40:17.929Z,887
2022-09-07T01:42:17.723Z,858
2022-09-07T01:44:17.554Z,809
2022-09-07T01:46:17.681Z,841
2022-09-07T01:48:17.461Z,909
2022-09-07T01:50:18.297Z,786
2022-09-07T01:52:18.180Z,773
2022-09-07T01:54:18.097Z,754
2022-09-07T01:56:18.086Z,829
2022-09-07T01:58:18.158Z,845
2022-09-07T02:00:17.520Z,927
2022-09-07T02:02:17.930Z,941
2022-09-07T02:04:17.501Z,829
2022-09-07T02:06:17.934Z,943
2022-09-07T02:08:17.710Z,841
2022-09-07T02:10:17.973Z,866
2022-09-07T02:12:18.171Z,875
2022-09-07T02:14:18.069Z,955
2022-09-07T02:16:18.201Z,790
2022-09-07T02:18:18.294Z,845
2022-09-07T02:20:18.238Z,822
2022-09-07T02:22:18.101Z,739
2022-09-07T02:24:18.076Z,803
2022-09-07T02:26:17.954Z,881
2022-09-07T02:28:17.815Z,868
2022-09-07T02:30:17.608Z,915
2022-09-07T02:32:17.668Z,803
2022-09-07T02:34:17.654Z,803
2022-09-07T02:36:17.711Z,838
2022-09-07T02:38:17.502Z,883
2022-09-07T02:40:17.792Z,882
2022-09-07T02:42:17.826Z,806
2022-09-07T02:44:17.654Z,875
2022-09-07T02:46:17.914Z,853
2022-09-07T02:48:18.226Z,770
2022-09-07T02:50:18.368Z,867
2022-09-07T02:52:18.178Z,849
2022-09-07T02:54:18.019Z,877
2022-09-07T02:56:18.296Z,825
2022-09-07T02:58:18.080Z,893
2022-09-07T03:00:18.363Z,822
2022-09-07T03:02:18.225Z,857
2022-09-07T03:04:18.167Z,812
2022-09-07T03:06:18.208Z,833
2022-09-07T03:08:18.113Z,922
2022-09-07T03:10:17.727Z,834
2022-09-07T03:12:18.108Z,762
2022-09-07T03:14:17.990Z,786
2022-09-07T03:16:18.502Z,831
2022-09-07T03:18:17.470Z,865
2022-09-07T03:20:18.282Z,856
2022-09-07T03:22:17.610Z,793
2022-09-07T03:24:17.716Z,849
2022-09-07T03:26:17.764Z,857
2022-09-07T03:28:17.531Z,870
2022-09-07T03:30:17.933Z,832
2022-09-07T03:32:17.893Z,816
2022-09-07T03:34:17.648Z,803
2022-09-07T03:36:17.614Z,817
2022-09-07T03:38:17.388Z,896
2022-09-07T03:40:18.180Z,837
2022-09-07T03:42:17.579Z,758
2022-09-07T03:44:17.754Z,833
2022-09-07T03:46:17.453Z,896
2022-09-07T03:48:17.826Z,918
2022-09-07T03:50:17.699Z,827
2022-09-07T03:52:17.635Z,827
2022-09-07T03:54:17.489Z,761
2022-09-07T03:56:18.528Z,744
2022-09-07T03:58:17.649Z,862
2022-09-07T04:00:17.474Z,776
2022-09-07T04:02:18.246Z,829
2022-09-07T04:04:18.086Z,804
2022-09-07T04:06:17.906Z,764
2022-09-07T04:08:17.673Z,768
2022-09-07T04:10:17.466Z,855
2022-09-07T04:12:17.660Z,840
2022-09-07T04:14:17.647Z,809
2022-09-07T04:16:17.590Z,827
2022-09-07T04:18:18.125Z,809
2022-09-07T04:20:18.078Z,760
2022-09-07T04:22:17.893Z,853
2022-09-07T04:24:17.683Z,761
2022-09-07T04:26:18.241Z,832
2022-09-07T04:28:17.768Z,838
2022-09-07T04:30:17.563Z,843
2022-09-07T04:32:17.511Z,812
2022-09-07T04:34:17.898Z,751
2022-09-07T04:36:18.054Z,828
2022-09-07T04:38:17.944Z,821
2022-09-07T04:40:17.679Z,820
2022-09-07T04:42:17.507Z,828
2022-09-07T04:44:18.307Z,808
2022-09-07T04:46:18.121Z,853
2022-09-07T04:48:17.517Z,855
2022-09-07T04:50:17.704Z,898
2022-09-07T04:52:17.467Z,845
2022-09-07T04:54:17.415Z,799
2022-09-07T04:56:18.165Z,849
2022-09-07T04:58:17.974Z,819
2022-09-07T05:00:17.892Z,936
2022-09-07T05:02:17.402Z,810
2022-09-07T05:04:18.205Z,820
2022-09-07T05:06:18.020Z,763
2022-09-07T05:08:18.217Z,699
2022-09-07T05:10:18.271Z,778
2022-09-07T05:12:18.073Z,798
2022-09-07T05:14:17.962Z,838
2022-09-07T05:16:18.227Z,833
2022-09-07T05:18:18.166Z,811
2022-09-07T05:20:20.220Z,780
2022-09-07T05:22:18.238Z,776
2022-09-07T05:24:18.029Z,758
2022-09-07T05:26:17.861Z,790
2022-09-07T05:28:19.503Z,791
2022-09-07T05:32:17.617Z,844
2022-09-07T05:34:33.171Z,912
2022-09-07T05:36:18.135Z,860
2022-09-07T05:38:18.357Z,887
2022-09-07T05:40:18.224Z,767
2022-09-07T05:42:18.106Z,785
2022-09-07T05:46:18.095Z,863
2022-09-07T05:48:18.018Z,836
2022-09-07T05:50:17.797Z,861
2022-09-07T05:52:18.175Z,846
2022-09-07T05:54:18.018Z,877
2022-09-07T05:56:17.961Z,825
2022-09-07T05:58:17.851Z,821
2022-09-07T06:00:17.903Z,799
2022-09-07T06:02:17.763Z,839
2022-09-07T06:04:17.582Z,757
2022-09-07T06:06:18.254Z,711
2022-09-07T06:08:17.521Z,680
2022-09-07T06:12:17.541Z,668
2022-09-07T06:14:18.297Z,600
2022-09-07T06:16:18.188Z,644
2022-09-07T06:18:18.180Z,617
2022-09-07T06:20:17.621Z,614
2022-09-07T06:22:17.387Z,692
2022-09-07T06:24:17.477Z,586
2022-09-07T06:26:18.326Z,615
2022-09-07T06:28:17.695Z,649
2022-09-07T06:30:17.548Z,482
2022-09-07T06:34:17.456Z,582
2022-09-07T06:36:17.566Z,594
2022-09-07T06:38:18.287Z,538
2022-09-07T06:40:17.378Z,620
2022-09-07T06:42:17.553Z,610
2022-09-07T06:44:18.384Z,614
2022-09-07T06:48:17.367Z,570
2022-09-07T06:50:18.198Z,611
2022-09-07T06:52:18.019Z,609
2022-09-07T06:56:17.527Z,576
2022-09-07T06:58:18.375Z,643
2022-09-07T07:00:18.127Z,550
2022-09-07T07:02:17.451Z,555
2022-09-07T07:04:17.860Z,560
2022-09-07T07:06:18.089Z,601
2022-09-07T07:08:17.865Z,597
2022-09-07T07:10:20.999Z,572
2022-09-07T07:14:17.782Z,607
2022-09-07T07:16:17.814Z,606
2022-09-07T07:18:21.080Z,561
2022-09-07T07:20:17.873Z,581
2022-09-07T07:22:42.890Z,644
2022-09-07T07:24:17.410Z,605
2022-09-07T07:26:18.241Z,601
2022-09-07T07:30:17.431Z,546
2022-09-07T07:32:17.729Z,528
2022-09-07T07:34:18.018Z,561
2022-09-07T07:36:18.106Z,607
2022-09-07T07:40:19.219Z,638
2022-09-07T07:42:18.171Z,652
2022-09-07T07:44:18.102Z,645
2022-09-07T07:46:18.068Z,515
2022-09-07T07:48:17.999Z,577
2022-09-07T07:50:33.828Z,649
2022-09-07T07:54:17.587Z,608
2022-09-07T07:56:17.393Z,576
2022-09-07T07:58:18.239Z,595
2022-09-07T08:00:27.394Z,624
2022-09-07T08:02:17.978Z,675
2022-09-07T08:04:17.633Z,629
2022-09-07T08:06:17.532Z,650
2022-09-07T08:08:18.459Z,617
2022-09-07T08:10:18.334Z,639
2022-09-07T08:12:18.205Z,665
2022-09-07T08:14:17.850Z,654
2022-09-07T08:16:17.732Z,666
2022-09-07T08:18:17.721Z,671
2022-09-07T08:20:17.535Z,584
2022-09-07T08:22:18.326Z,710
2022-09-07T08:24:17.342Z,726
2022-09-07T08:26:17.660Z,646
2022-09-07T08:28:17.653Z,734
2022-09-07T08:30:17.474Z,671
2022-09-07T08:32:18.310Z,566
2022-09-07T08:34:17.380Z,632
2022-09-07T08:36:18.134Z,636
2022-09-07T08:38:21.001Z,701
2022-09-07T08:40:17.984Z,599
2022-09-07T08:42:17.934Z,706
2022-09-07T08:44:18.176Z,706
2022-09-07T08:46:18.322Z,704
2022-09-07T08:48:17.532Z,669
2022-09-07T08:50:17.886Z,708
2022-09-07T08:52:18.034Z,601
2022-09-07T08:54:18.321Z,625
2022-09-07T08:56:18.140Z,654
2022-09-07T08:58:32.478Z,716
2022-09-07T09:00:17.685Z,611
2022-09-07T09:02:36.824Z,659
2022-09-07T09:04:18.935Z,565
2022-09-07T09:06:18.396Z,676
2022-09-07T09:08:18.263Z,653
2022-09-07T09:10:17.960Z,651
2022-09-07T09:12:17.739Z,661
2022-09-07T09:14:18.034Z,508
2022-09-07T09:16:17.888Z,519
2022-09-07T09:18:17.689Z,549
2022-09-07T09:20:17.465Z,612
2022-09-07T09:22:18.188Z,577
2022-09-07T09:24:17.561Z,604
2022-09-07T09:26:17.922Z,540
2022-09-07T09:28:17.681Z,603
2022-09-07T09:30:17.485Z,546
2022-09-07T09:32:17.471Z,600
2022-09-07T09:34:18.270Z,620
2022-09-07T09:36:18.064Z,632
2022-09-07T09:38:18.097Z,562
2022-09-07T09:40:18.309Z,614
2022-09-07T09:42:18.191Z,626
2022-09-07T09:44:18.029Z,620
2022-09-07T09:46:17.807Z,700
2022-09-07T09:48:17.609Z,607
2022-09-07T09:52:28.760Z,574
2022-09-07T09:52:36.489Z,622
2022-09-07T09:54:17.845Z,571
2022-09-07T09:56:18.322Z,628
2022-09-07T10:00:26.247Z,651
2022-09-07T10:04:19.332Z,664
2022-09-07T10:06:17.434Z,652
2022-09-07T10:08:18.208Z,674
2022-09-07T10:10:17.503Z,659
2022-09-07T10:12:18.264Z,551
2022-09-07T10:14:17.576Z,696
2022-09-07T10:16:17.819Z,649
2022-09-07T10:18:17.904Z,611
2022-09-07T10:20:17.782Z,757
2022-09-07T10:22:17.744Z,554
2022-09-07T10:24:17.562Z,597
2022-09-07T10:26:18.304Z,630
2022-09-07T10:28:18.116Z,683
2022-09-07T10:30:17.919Z,770
2022-09-07T10:32:17.702Z,675
2022-09-07T10:34:32.790Z,589
2022-09-07T10:36:17.606Z,664
2022-09-07T10:38:17.378Z,667
2022-09-07T10:40:18.345Z,652
2022-09-07T10:42:18.125Z,723
2022-09-07T10:44:17.925Z,517
2022-09-07T10:46:56.163Z,596
2022-09-07T10:48:17.991Z,682
2022-09-07T10:50:25.155Z,631
2022-09-07T10:52:17.552Z,602
2022-09-07T10:54:33.412Z,562
2022-09-07T10:56:18.348Z,620
2022-09-07T10:58:18.467Z,620
2022-09-07T11:00:18.371Z,584
2022-09-07T11:02:17.564Z,676
2022-09-07T11:04:17.347Z,792
2022-09-07T11:06:18.139Z,790
2022-09-07T11:08:17.546Z,765
2022-09-07T11:10:17.687Z,650
2022-09-07T11:12:18.226Z,666
2022-09-07T11:14:18.892Z,760
2022-09-07T11:18:17.659Z,689
2022-09-07T11:20:17.489Z,866
2022-09-07T11:22:17.881Z,822
2022-09-07T11:24:17.629Z,762
2022-09-07T11:26:17.467Z,686
2022-09-07T11:28:18.227Z,795
2022-09-07T11:30:18.174Z,725
2022-09-07T11:32:17.918Z,706
2022-09-07T11:34:25.151Z,640
2022-09-07T11:36:18.071Z,626
2022-09-07T11:38:17.940Z,629
2022-09-07T11:40:17.810Z,612
2022-09-07T11:44:17.803Z,760
2022-09-07T11:46:17.688Z,770
2022-09-07T11:48:19.406Z,869
2022-09-07T11:50:17.574Z,777
2022-09-07T11:52:17.834Z,732
2022-09-07T11:54:18.078Z,721
2022-09-07T11:56:17.905Z,744
2022-09-07T11:58:17.762Z,793
2022-09-07T12:00:18.284Z,820
2022-09-07T12:02:17.580Z,876
2022-09-07T12:04:17.865Z,869
2022-09-07T12:06:17.727Z,755
2022-09-07T12:08:17.708Z,840
2022-09-07T12:10:17.491Z,732
2022-09-07T12:12:18.283Z,832
2022-09-07T12:14:18.097Z,764
2022-09-07T12:16:17.940Z,733
2022-09-07T12:18:17.956Z,659
2022-09-07T12:20:17.982Z,651
2022-09-07T12:22:17.441Z,701
2022-09-07T12:24:18.306Z,688
2022-09-07T12:26:18.074Z,849
2022-09-07T12:28:21.760Z,810
2022-09-07T12:30:17.868Z,831
2022-09-07T12:34:17.429Z,837
2022-09-07T12:36:18.231Z,674
2022-09-07T12:38:18.235Z,788
2022-09-07T12:40:18.169Z,882
2022-09-07T12:42:34.304Z,766
2022-09-07T12:44:17.678Z,801
2022-09-07T12:46:18.074Z,854
2022-09-07T12:48:17.865Z,764
2022-09-07T12:50:17.754Z,856
2022-09-07T12:52:17.792Z,873
2022-09-07T12:54:17.538Z,788
2022-09-07T12:56:17.776Z,826
2022-09-07T12:58:17.713Z,771
2022-09-07T13:00:17.734Z,676
2022-09-07T13:02:18.261Z,711
2022-09-07T13:04:18.304Z,741
2022-09-07T13:06:18.641Z,747
2022-09-07T13:08:17.747Z,787
2022-09-07T13:10:17.701Z,770
2022-09-07T13:12:52.771Z,727
2022-09-07T13:14:19.031Z,843
2022-09-07T13:16:18.080Z,850
2022-09-07T13:18:18.060Z,846
2022-09-07T13:20:17.838Z,938
2022-09-07T13:22:17.763Z,832
2022-09-07T13:26:18.417Z,869
2022-09-07T13:28:17.568Z,716
2022-09-07T13:30:17.927Z,855
2022-09-07T13:32:17.766Z,784
2022-09-07T13:34:17.559Z,725
2022-09-07T13:36:17.388Z,843
2022-09-07T13:38:18.211Z,998
2022-09-07T13:40:18.126Z,820
2022-09-07T13:42:17.950Z,801
2022-09-07T13:44:18.500Z,802
2022-09-07T13:46:17.630Z,895
2022-09-07T13:48:17.559Z,806
2022-09-07T13:50:18.310Z,828
2022-09-07T13:52:18.091Z,863
2022-09-07T13:54:17.910Z,969
2022-09-07T13:56:17.626Z,906
2022-09-07T13:58:17.346Z,899
2022-09-07T14:00:18.058Z,748
2022-09-07T14:02:17.982Z,817
2022-09-07T14:04:17.900Z,782
2022-09-07T14:06:17.760Z,846
2022-09-07T14:08:17.502Z,853
2022-09-07T14:10:18.289Z,822
2022-09-07T14:12:18.254Z,722
2022-09-07T14:14:18.024Z,807
2022-09-07T14:16:17.875Z,787
2022-09-07T14:18:17.879Z,778
2022-09-07T14:20:17.774Z,712
2022-09-07T14:22:17.810Z,747
2022-09-07T14:24:17.742Z,690
2022-09-07T14:26:18.453Z,718
2022-09-07T14:28:17.927Z,748
2022-09-07T14:30:17.801Z,720
2022-09-07T14:32:18.646Z,676
2022-09-07T14:34:18.872Z,716
2022-09-07T14:36:40.371Z,652
2022-09-07T14:38:17.874Z,728
2022-09-07T14:40:17.999Z,623
2022-09-07T14:42:17.899Z,682
2022-09-07T14:44:17.779Z,697
2022-09-07T14:46:17.630Z,757
2022-09-07T14:48:17.520Z,627
2022-09-07T14:50:20.484Z,708
2022-09-07T14:52:17.528Z,720
2022-09-07T14:54:18.440Z,670
2022-09-07T14:56:18.354Z,680
2022-09-07T14:58:18.134Z,664
2022-09-07T15:00:18.016Z,734
2022-09-07T15:02:17.902Z,757
2022-09-07T15:04:17.777Z,704
2022-09-07T15:08:18.370Z,694
2022-09-07T15:10:18.038Z,704
2022-09-07T15:12:17.954Z,744
2022-09-07T15:14:17.778Z,668
2022-09-07T15:16:17.543Z,679
2022-09-07T15:18:17.477Z,683
2022-09-07T15:20:18.298Z,729
2022-09-07T15:22:18.160Z,695
2022-09-07T15:24:17.939Z,660
2022-09-07T15:29:08.065Z,713
2022-09-07T15:30:18.336Z,708
2022-09-07T15:32:18.385Z,713
2022-09-07T15:34:18.235Z,641
2022-09-07T15:36:18.037Z,620
2022-09-07T15:40:17.724Z,663
2022-09-07T15:44:21.634Z,638
2022-09-07T15:46:18.258Z,680
2022-09-07T15:48:18.166Z,576
2022-09-07T15:50:17.974Z,579
2022-09-07T15:52:17.762Z,632
2022-09-07T15:54:17.781Z,627
2022-09-07T15:56:20.112Z,616
2022-09-07T15:58:18.439Z,695
2022-09-07T16:00:17.532Z,738
2022-09-07T16:04:17.782Z,783
2022-09-07T16:06:17.625Z,785
2022-09-07T16:08:25.298Z,807
2022-09-07T16:10:18.448Z,842
2022-09-07T16:14:18.186Z,774
2022-09-07T16:16:18.354Z,861
2022-09-07T16:18:18.393Z,842
2022-09-07T16:20:18.160Z,883
2022-09-07T16:24:18.321Z,830
2022-09-07T16:26:18.142Z,918
2022-09-07T16:28:17.864Z,863
2022-09-07T16:30:17.661Z,916
2022-09-07T16:34:18.238Z,896
2022-09-07T16:36:17.972Z,827
2022-09-07T16:40:18.351Z,849
2022-09-07T16:42:18.188Z,844
2022-09-07T16:44:18.003Z,871
2022-09-07T16:46:18.962Z,938
2022-09-07T16:48:17.902Z,1018
2022-09-07T16:50:17.764Z,930
2022-09-07T16:52:17.677Z,966
2022-09-07T16:54:17.608Z,998
2022-09-07T16:56:17.427Z,870
2022-09-07T17:00:18.101Z,1011
2022-09-07T17:02:17.849Z,978
2022-09-07T17:04:17.713Z,955
2022-09-07T17:06:17.737Z,1031
2022-09-07T17:08:17.524Z,852
2022-09-07T17:10:18.262Z,933
2022-09-07T17:12:18.106Z,1012
2022-09-07T17:14:17.863Z,967
2022-09-07T17:16:17.786Z,973
2022-09-07T17:18:17.931Z,1003
2022-09-07T17:20:17.908Z,1071
2022-09-07T17:22:17.661Z,901
2022-09-07T17:24:19.633Z,992
2022-09-07T17:26:17.532Z,990
2022-09-07T17:28:17.789Z,925
2022-09-07T17:30:20.708Z,1009
2022-09-07T17:32:25.545Z,883
2022-09-07T17:34:17.579Z,994
2022-09-07T17:36:17.810Z,995
2022-09-07T17:40:17.474Z,937
2022-09-07T17:42:17.703Z,1011
2022-09-07T17:44:17.535Z,882
2022-09-07T17:46:17.811Z,937
2022-09-07T17:48:17.718Z,861
2022-09-07T17:50:17.609Z,943
2022-09-07T17:52:17.410Z,926
2022-09-07T17:54:18.211Z,869
2022-09-07T17:56:18.047Z,827
2022-09-07T17:58:18.109Z,966
2022-09-07T18:00:17.927Z,981
2022-09-07T18:02:18.286Z,945
2022-09-07T18:04:18.219Z,996
2022-09-07T18:06:17.938Z,949
2022-09-07T18:08:17.917Z,978
2022-09-07T18:10:17.676Z,1064
2022-09-07T18:12:19.506Z,893
2022-09-07T18:14:18.301Z,912
2022-09-07T18:16:18.106Z,956
2022-09-07T18:18:20.015Z,919
2022-09-07T18:20:19.144Z,1014
2022-09-07T18:22:18.030Z,953
2022-09-07T18:24:17.894Z,967
2022-09-07T18:26:17.700Z,946
2022-09-07T18:30:17.519Z,848
2022-09-07T18:32:18.396Z,816
2022-09-07T18:34:18.283Z,910
2022-09-07T18:36:18.059Z,916
2022-09-07T18:38:17.866Z,726
2022-09-07T18:40:21.300Z,749
2022-09-07T18:42:17.483Z,719
2022-09-07T18:46:18.264Z,628
2022-09-07T18:48:18.150Z,622
2022-09-07T18:50:20.800Z,580
2022-09-07T18:54:17.932Z,676
2022-09-07T18:56:17.717Z,583
2022-09-07T18:58:17.581Z,586
2022-09-07T19:00:17.883Z,576
2022-09-07T19:02:18.945Z,544
2022-09-07T19:04:18.003Z,521
2022-09-07T19:06:17.863Z,554
2022-09-07T19:08:17.601Z,541
2022-09-07T19:10:17.460Z,554
2022-09-07T19:12:18.251Z,491
2022-09-07T19:14:18.008Z,509
2022-09-07T19:16:17.993Z,519
2022-09-07T19:18:17.986Z,587
2022-09-07T19:20:17.891Z,606
2022-09-07T19:22:17.712Z,511
2022-09-07T19:24:17.530Z,515
2022-09-07T19:26:18.271Z,541
2022-09-07T19:28:18.035Z,590
2022-09-07T19:30:17.877Z,521
2022-09-07T19:32:17.877Z,589
2022-09-07T19:34:17.745Z,567
2022-09-07T19:36:17.539Z,626
2022-09-07T19:38:17.612Z,579
2022-09-07T19:40:19.317Z,599
2022-09-07T19:42:17.351Z,651
2022-09-07T19:44:18.200Z,515
2022-09-07T19:46:21.502Z,556
2022-09-07T19:48:17.982Z,540
2022-09-07T19:50:17.727Z,597
2022-09-07T19:52:17.449Z,565
2022-09-07T19:54:17.412Z,501
2022-09-07T19:56:18.292Z,517
2022-09-07T19:58:18.051Z,517
2022-09-07T20:00:17.850Z,602
2022-09-07T20:02:17.640Z,507
2022-09-07T20:04:20.000Z,566
2022-09-07T20:06:18.128Z,557
2022-09-07T20:08:18.030Z,475
2022-09-07T20:10:17.833Z,646
2022-09-07T20:12:17.699Z,622
2022-09-07T20:14:21.984Z,638
2022-09-07T20:16:17.877Z,667
2022-09-07T20:18:17.923Z,764
2022-09-07T20:20:17.706Z,708
2022-09-07T20:22:17.687Z,756
2022-09-07T20:24:17.740Z,749
2022-09-07T20:26:17.585Z,807
2022-09-07T20:28:18.432Z,700
2022-09-07T20:30:18.158Z,839
2022-09-07T20:32:17.907Z,786
2022-09-07T20:34:18.864Z,903
2022-09-07T20:36:17.746Z,817
2022-09-07T20:38:17.697Z,841
2022-09-07T20:40:17.510Z,867
2022-09-07T20:42:18.375Z,818
2022-09-07T20:44:17.397Z,858
2022-09-07T20:46:17.631Z,873
2022-09-07T20:48:17.488Z,829
2022-09-07T20:50:17.671Z,842
2022-09-07T20:52:17.718Z,858
2022-09-07T20:54:17.505Z,898
2022-09-07T20:56:17.590Z,901
2022-09-07T20:58:17.672Z,882
2022-09-07T21:00:17.560Z,918
2022-09-07T21:02:18.012Z,891
2022-09-07T21:04:17.866Z,804
2022-09-07T21:06:17.700Z,903
2022-09-07T21:08:17.483Z,931
2022-09-07T21:10:17.597Z,881
2022-09-07T21:12:17.451Z,823
2022-09-07T21:14:18.281Z,958
2022-09-07T21:16:18.143Z,866
2022-09-07T21:18:18.190Z,931
2022-09-07T21:20:17.986Z,881
2022-09-07T21:22:18.108Z,886
2022-09-07T21:24:17.986Z,921
2022-09-07T21:26:17.649Z,1049
2022-09-07T21:28:17.423Z,914
2022-09-07T21:30:17.535Z,835
2022-09-07T21:32:18.302Z,883
2022-09-07T21:34:18.087Z,954
2022-09-07T21:36:17.876Z,959
2022-09-07T21:38:17.789Z,947
2022-09-07T21:40:17.790Z,894
2022-09-07T21:42:17.557Z,940
2022-09-07T21:44:17.750Z,889
2022-09-07T21:46:17.717Z,1023
2022-09-07T21:48:17.648Z,900
2022-09-07T21:50:17.460Z,954
2022-09-07T21:52:18.220Z,841
2022-09-07T21:54:18.051Z,951
2022-09-07T21:56:17.739Z,893
2022-09-07T21:58:17.546Z,945
2022-09-07T22:00:18.363Z,871
2022-09-07T22:02:18.226Z,900
2022-09-07T22:04:18.062Z,920
2022-09-07T22:06:17.877Z,941
2022-09-07T22:08:17.688Z,898
2022-09-07T22:10:17.586Z,939
2022-09-07T22:12:18.342Z,962
2022-09-07T22:14:18.096Z,935
2022-09-07T22:16:17.956Z,864
2022-09-07T22:18:17.918Z,833
2022-09-07T22:20:17.685Z,910
2022-09-07T22:22:17.496Z,898
2022-09-07T22:24:18.379Z,938
2022-09-07T22:26:18.208Z,933
2022-09-07T22:28:18.167Z,925
2022-09-07T22:30:17.928Z,982
2022-09-07T22:32:17.775Z,917
2022-09-07T22:34:17.634Z,898
2022-09-07T22:36:17.466Z,891
2022-09-07T22:38:18.331Z,920
2022-09-07T22:40:18.078Z,965
2022-09-07T22:42:17.922Z,961
2022-09-07T22:44:17.725Z,988
2022-09-07T22:46:17.551Z,889
2022-09-07T22:48:17.647Z,919
2022-09-07T22:50:17.419Z,832
2022-09-07T22:52:17.554Z,871
2022-09-07T22:54:17.684Z,885
2022-09-07T22:56:17.472Z,849
2022-09-07T22:58:18.279Z,875
2022-09-07T23:00:18.081Z,877
2022-09-07T23:02:18.184Z,899
2022-09-07T23:04:18.134Z,959
2022-09-07T23:06:18.155Z,923
2022-09-07T23:08:17.933Z,842
2022-09-07T23:10:17.741Z,808
2022-09-07T23:12:17.567Z,891
2022-09-07T23:14:18.694Z,870
2022-09-07T23:16:17.743Z,881
2022-09-07T23:18:17.754Z,892
2022-09-07T23:20:17.589Z,845
2022-09-07T23:22:17.603Z,901
2022-09-07T23:24:17.558Z,763
2022-09-07T23:26:18.398Z,858
2022-09-07T23:28:17.811Z,873
2022-09-07T23:30:17.587Z,974
2022-09-07T23:32:17.798Z,799
2022-09-07T23:34:17.692Z,842
2022-09-07T23:36:17.528Z,916
2022-09-07T23:38:18.305Z,957
2022-09-07T23:40:18.190Z,818
2022-09-07T23:42:18.079Z,848
2022-09-07T23:44:17.809Z,797
2022-09-07T23:46:17.634Z,885
2022-09-07T23:48:17.779Z,924
2022-09-07T23:50:17.737Z,916
2022-09-07T23:52:17.608Z,892
2022-09-07T23:54:17.964Z,879
2022-09-07T23:56:17.696Z,817
2022-09-07T23:58:17.429Z,845
